Startpagina
METAR-TAF:

METAR-TAF

Vliegvelden :

Fairbanks, Alaska, Verenigde Staten

breedte: 64-48-14N, lengte: 147-52-34W, hoogte: 132 m

Actueel weer

Dit bericht is 40 minuten geleden gemaakt, om 13:53 UTC
Wind 5 kt uit het noorden
Temperatuur 1°C
Vochtigheid 55%
Druk 990 hPa
Zicht: 16.1 km
Gebroken wolken op 4500 ft

METAR: PAFA 181353Z 36005KT 10SM BKN045 01/M07 A2922 RMK AO2 SLP904 T00111067

Tijdstip: 06:33 (14:33 UTC)

Verwachting

Dit bericht is 3 uur en het 10 minuten geleden gemaakt, om 11:23 UTC
Verwachting geldig van 18 om 12 UTC tot 19 om 18 UTC
Wind 9 kt uit het noorden
Zicht: 10 km
Gebroken wolken op 4500 ft
Van 18 om 1900 UTC
Wind 5 kt uit het noordnoordoosten
Zicht: 10 km
Geheel bewolkt op 3500 ft
buien in de omgeving
Van 19 om 1200 UTC
Wind 5 kt uit het noordnoordoosten
Zicht: 9.7 km
Geheel bewolkt op 2500 ft
lichte sneeuw, nevel

TAF: PAFA 181123Z 1812/1918 01009KT P6SM BKN045 FM181900 03005KT P6SM VCSH OVC035 FM191200 03005KT 6SM -SN BR OVC025

Waarnemingen en weersverwachtingen van meer dan 4000 vliegvelden (METAR en TAF).

De beschikbare stations zijn de gele en rode punten op de kaart.

Ga met uw muis naar het station om de naam te zien.

Klik dan om waarnemingen en weersverwachtingen te zien.

kaart wijzigen: klik op de groene knoppen met een zwart kruis om in te zoomen, op de groene knop met een streepje om uit te zoomen of op de groene pijlen voor aangrenzende kaarten.


METAR-TAF: